首页
METAR-TAF:

METAR-TAF

机场 :

Bradford, 宾夕法尼亚州, 美国

纬度: 41-47-55N, 经度: 078-38-09W, 海拔: 653米

当前天气观测

该预报发布于20分钟前的13:06 UTC
风速4节,风向东北
温度 18°C
湿度 100%
气压 1015 hPa
能見度: 16.1公里
多云层高于300英尺
多云层高于2800英尺
阴天层高于9500英尺
小雨

METAR: KBFD 181306Z AUTO 05004KT 10SM -RA BKN003 BKN028 OVC095 18/18 A2997 RMK AO2 CIG 002V006 P0000 T01830178

时间: 09:26 (13:26 UTC)

预报

该预报发布于1小时和50分钟前的11:36 UTC
预报有效从18日的 12点(UTC)到 19日的 12点(UTC)
风速节,风向
能見度: 0.4公里
散云层高于200英尺
多云层高于900英尺
阴天层高于8000英尺
小雨, 雾
从 18日的 1400点(UTC)
风速2节,风向多变
能見度: 10公里
多云层高于2500英尺
从 18日的 1600点(UTC)
风速3节,风向西北
能見度: 10公里
多云层高于3500英尺
附近有阵雨
从 19日的 0200点(UTC)
风速5节,风向多变
能見度: 6.4公里
散云层高于3000英尺
轻雾
从 19日的 0500点(UTC)
风速3节,风向多变
能見度: 1.2公里
多云层高于200英尺
轻雾

TAF: KBFD 181136Z 1812/1912 00000KT 1/4SM -RA FG SCT002 BKN009 OVC080 FM181400 VRB02KT P6SM BKN025 FM181600 31003KT P6SM VCSH BKN035 FM190200 VRB05KT 4SM BR SCT030 FM190500 VRB03KT 3/4SM BR BKN002

超过4000个机场的气象观测和天气预报(METAR&TAF报告)。

可查询的气象台以黄色和红色小点在地图上表示。

将鼠标移到小点上方,可查看气象台名称。

然后点击查看天气观测和预报。

如需切换地图:点击带黑十字的绿色按钮放大地图;点击带横线的绿色按钮缩小地图;或者点击绿色箭头查看邻近地区的地图。


METAR-TAF: